Terminal Aerodrome Forecast
Issued by NWS

Home | Current Version | Previous Version | Text Only | Print | Product List | Glossary On
Versions: 1 2 3 4 5 6 7 8 9 10 11 12 13 14 15 16 17 18 19 20 21 22 23
275
FTUS41 KBUF 301725 AAB
TAFIAG
TAF AMD
KIAG 301725Z 3017/0112 11008KT P6SM FEW050 SCT110
     FM302100 07010G16KT P6SM SCT060
     FM010000 08010G16KT P6SM BKN045
     FM010400 09010KT P6SM VCSH BKN035
     FM010600 10007KT 6SM -RA OVC030
     FM010900 08010G17KT 6SM -RA OVC025=

USA.gov is the U.S. government's official web portal to all federal, state and local government web resources and services.